createdAt,value
2019-04-26T00:01:18.589Z,14.00
2019-04-26T00:03:48.571Z,14.02
2019-04-26T00:06:18.822Z,13.94
2019-04-26T00:08:56.822Z,13.91
2019-04-26T00:12:00.684Z,13.89
2019-04-26T00:14:47.584Z,13.83
2019-04-26T00:17:35.933Z,13.74
2019-04-26T00:20:06.187Z,13.66
2019-04-26T00:22:35.689Z,13.67
2019-04-26T00:25:05.692Z,13.68
2019-04-26T00:27:35.173Z,13.64
2019-04-26T00:30:04.896Z,13.53
2019-04-26T00:32:34.267Z,13.57
2019-04-26T00:35:03.647Z,13.60
2019-04-26T00:37:33.009Z,13.58
2019-04-26T00:40:02.409Z,13.50
2019-04-26T00:42:33.532Z,13.46
2019-04-26T00:45:02.958Z,13.47
2019-04-26T00:47:32.445Z,13.45
2019-04-26T00:50:02.501Z,13.45
2019-04-26T00:52:33.195Z,13.37
2019-04-26T00:55:03.837Z,13.32
2019-04-26T00:57:34.797Z,13.22
2019-04-26T01:00:05.902Z,13.18
2019-04-26T01:02:43.728Z,13.22
2019-04-26T01:05:13.149Z,13.12
2019-04-26T01:07:44.326Z,12.93
2019-04-26T01:10:13.677Z,12.83
2019-04-26T01:12:43.104Z,12.83
2019-04-26T01:15:12.681Z,12.77
2019-04-26T01:17:42.383Z,12.76
2019-04-26T01:20:12.613Z,12.75
2019-04-26T01:22:46.408Z,12.68
2019-04-26T01:25:46.931Z,12.54
2019-04-26T01:28:23.386Z,12.37
2019-04-26T01:30:54.924Z,12.36
2019-04-26T01:33:24.761Z,12.35
2019-04-26T01:35:54.355Z,12.37
2019-04-26T01:38:23.888Z,12.39
2019-04-26T01:40:55.944Z,12.35
2019-04-26T01:43:47.227Z,12.36
2019-04-26T01:46:25.288Z,12.36
2019-04-26T01:49:02.487Z,12.35
2019-04-26T01:51:47.118Z,12.34
2019-04-26T01:54:19.676Z,12.20
2019-04-26T01:56:51.879Z,12.04
2019-04-26T01:59:22.690Z,12.04
2019-04-26T02:02:00.742Z,11.94
2019-04-26T02:04:32.542Z,11.94
2019-04-26T02:07:02.374Z,11.99
2019-04-26T02:09:32.768Z,11.94
2019-04-26T02:12:02.984Z,11.90
2019-04-26T02:14:33.324Z,11.99
2019-04-26T02:17:03.002Z,11.99
2019-04-26T02:19:33.735Z,12.06
2019-04-26T02:22:16.413Z,12.07
2019-04-26T02:24:47.586Z,12.07
2019-04-26T02:27:26.329Z,11.97
2019-04-26T02:29:56.752Z,11.96
2019-04-26T02:32:27.212Z,11.97
2019-04-26T02:34:58.473Z,11.92
2019-04-26T02:37:28.760Z,11.89
2019-04-26T02:39:59.271Z,11.77
2019-04-26T02:42:41.386Z,5.80
2019-04-26T02:46:00.310Z,11.64
2019-04-26T02:49:14.815Z,11.67
2019-04-26T02:51:51.202Z,11.70
2019-04-26T02:54:46.864Z,11.68
2019-04-26T02:57:36.627Z,11.68
2019-04-26T03:00:10.271Z,11.64
2019-04-26T03:02:40.441Z,11.64
2019-04-26T03:05:10.880Z,11.66
2019-04-26T03:08:15.792Z,11.63
2019-04-26T03:10:49.681Z,11.55
2019-04-26T03:13:40.922Z,11.49
2019-04-26T03:16:32.778Z,11.54
2019-04-26T03:19:27.486Z,11.63
2019-04-26T03:22:06.859Z,11.54
2019-04-26T03:24:56.374Z,11.32
2019-04-26T03:27:41.013Z,11.27
2019-04-26T03:30:41.469Z,11.21
2019-04-26T03:33:53.183Z,11.18
2019-04-26T03:36:35.407Z,11.13
2019-04-26T03:39:26.064Z,11.12
2019-04-26T03:42:11.968Z,11.19
2019-04-26T03:44:53.444Z,11.30
2019-04-26T03:47:25.591Z,11.43
2019-04-26T03:50:22.779Z,11.32
2019-04-26T03:53:08.797Z,11.24
2019-04-26T03:56:28.112Z,11.22
2019-04-26T03:59:45.927Z,11.29
2019-04-26T04:02:37.389Z,11.42
2019-04-26T04:05:22.169Z,11.54
2019-04-26T04:07:54.431Z,11.63
2019-04-26T04:10:26.881Z,11.65
2019-04-26T04:13:04.939Z,11.70
2019-04-26T04:15:44.068Z,11.72
2019-04-26T04:18:20.282Z,11.79
2019-04-26T04:21:34.091Z,11.99
2019-04-26T04:24:13.541Z,12.23
2019-04-26T04:27:25.732Z,12.66
2019-04-26T04:30:26.882Z,12.99
2019-04-26T04:33:22.819Z,13.35
2019-04-26T04:35:56.434Z,13.73
2019-04-26T04:38:38.061Z,14.07
2019-04-26T04:41:28.535Z,14.22
2019-04-26T04:44:27.541Z,14.23
2019-04-26T04:47:31.471Z,14.23
2019-04-26T04:50:33.329Z,14.41
2019-04-26T04:53:25.396Z,14.69
2019-04-26T04:56:33.498Z,15.25
2019-04-26T04:59:07.091Z,15.29
2019-04-26T05:02:25.064Z,15.34
2019-04-26T05:05:49.058Z,15.48
2019-04-26T05:08:34.598Z,15.62
2019-04-26T05:11:13.878Z,15.72
2019-04-26T05:13:48.570Z,15.52
2019-04-26T05:16:52.581Z,15.25
2019-04-26T05:19:52.803Z,15.55
2019-04-26T05:23:14.435Z,16.47
2019-04-26T05:26:46.117Z,16.91
2019-04-26T05:30:02.556Z,17.46
2019-04-26T05:33:17.810Z,17.33
2019-04-26T05:36:37.754Z,17.38
2019-04-26T05:39:30.417Z,17.15
2019-04-26T05:42:23.961Z,17.09
2019-04-26T05:45:44.505Z,17.64
2019-04-26T05:49:02.842Z,18.13
2019-04-26T05:52:04.560Z,18.54
2019-04-26T05:55:16.104Z,18.39
2019-04-26T05:58:33.227Z,18.75
2019-04-26T06:01:54.880Z,19.47
2019-04-26T06:05:08.232Z,19.58
2019-04-26T06:08:06.546Z,19.90
2019-04-26T06:10:47.402Z,19.61
2019-04-26T06:14:30.704Z,18.94
2019-04-26T06:17:22.883Z,19.19
2019-04-26T06:20:35.322Z,19.37
2019-04-26T06:23:27.283Z,17.13
2019-04-26T06:26:08.790Z,19.43
2019-04-26T06:29:06.341Z,20.19
2019-04-26T06:31:41.774Z,20.71
2019-04-26T06:34:26.117Z,20.70
2019-04-26T06:37:11.671Z,21.37
2019-04-26T06:39:59.944Z,21.62
2019-04-26T06:43:02.798Z,21.31
2019-04-26T06:46:06.045Z,21.49
2019-04-26T06:49:15.599Z,21.19
2019-04-26T06:51:51.183Z,22.00
2019-04-26T06:54:43.824Z,22.42
2019-04-26T06:58:19.045Z,22.51
2019-04-26T07:01:09.569Z,22.36
2019-04-26T07:03:52.409Z,22.58
2019-04-26T07:06:34.794Z,22.63
2019-04-26T07:09:09.850Z,22.37
2019-04-26T07:12:25.081Z,23.02
2019-04-26T07:15:28.416Z,23.26
2019-04-26T07:18:12.831Z,23.73
2019-04-26T07:21:09.180Z,24.00
2019-04-26T07:24:53.134Z,24.28
2019-04-26T07:27:38.007Z,23.83
2019-04-26T07:30:23.425Z,23.87
2019-04-26T07:33:22.358Z,23.76
2019-04-26T07:36:41.963Z,23.12
2019-04-26T07:39:31.939Z,23.27
2019-04-26T07:42:54.014Z,23.69
2019-04-26T07:46:01.345Z,24.41
2019-04-26T07:49:03.187Z,24.19
2019-04-26T07:52:20.265Z,24.43
2019-04-26T07:55:23.480Z,24.25
2019-04-26T07:58:35.617Z,24.39
2019-04-26T08:01:22.941Z,24.80
2019-04-26T08:04:05.294Z,24.43
2019-04-26T08:06:56.122Z,24.33
2019-04-26T08:09:28.234Z,24.72
2019-04-26T08:12:06.048Z,24.71
2019-04-26T08:14:49.572Z,24.69
2019-04-26T08:17:46.812Z,24.94
2019-04-26T08:20:38.999Z,25.21
2019-04-26T08:23:28.175Z,24.81
2019-04-26T08:25:43.999Z,24.50
2019-04-26T08:28:17.407Z,24.60
2019-04-26T08:30:50.303Z,25.36
2019-04-26T08:33:25.375Z,24.04
2019-04-26T08:35:57.307Z,22.62
2019-04-26T08:38:28.809Z,25.41
2019-04-26T08:41:00.424Z,26.15
2019-04-26T08:43:47.840Z,26.19
2019-04-26T08:46:37.968Z,26.33
2019-04-26T08:49:27.314Z,26.05
2019-04-26T08:51:59.955Z,25.95
2019-04-26T08:54:34.386Z,26.31
2019-04-26T08:57:08.539Z,26.60
2019-04-26T08:59:46.478Z,26.64
2019-04-26T09:02:39.893Z,26.65
2019-04-26T09:05:31.127Z,26.55
2019-04-26T09:08:04.018Z,27.57
2019-04-26T09:10:39.335Z,28.07
2019-04-26T09:13:10.095Z,27.53
2019-04-26T09:16:17.293Z,27.23
2019-04-26T09:18:52.348Z,27.38
2019-04-26T09:21:20.897Z,27.95
2019-04-26T09:24:25.363Z,27.06
2019-04-26T09:27:07.173Z,27.44
2019-04-26T09:29:55.455Z,27.50
2019-04-26T09:32:40.429Z,27.76
2019-04-26T09:35:11.208Z,28.12
2019-04-26T09:37:41.468Z,27.98
2019-04-26T09:40:21.170Z,28.16
2019-04-26T09:42:59.666Z,28.26
2019-04-26T09:45:48.134Z,28.59
2019-04-26T09:48:25.068Z,28.70
2019-04-26T09:50:55.071Z,28.76
2019-04-26T09:53:24.558Z,28.66
2019-04-26T09:55:53.997Z,28.77
2019-04-26T09:58:26.894Z,28.93
2019-04-26T10:00:56.447Z,28.80
2019-04-26T10:03:25.858Z,28.43
2019-04-26T10:05:55.856Z,29.02
2019-04-26T10:08:26.374Z,29.24
2019-04-26T10:10:55.745Z,29.70
2019-04-26T10:13:49.176Z,30.46
2019-04-26T10:16:26.257Z,30.64
2019-04-26T10:19:01.367Z,31.22
2019-04-26T10:21:30.726Z,30.79
2019-04-26T10:24:00.203Z,30.07
2019-04-26T10:26:30.019Z,30.54
2019-04-26T10:28:59.376Z,30.30
2019-04-26T10:31:28.735Z,30.11
2019-04-26T10:33:58.084Z,30.09
2019-04-26T10:36:30.094Z,30.18
2019-04-26T10:38:59.706Z,30.02
2019-04-26T10:41:29.063Z,30.05
2019-04-26T10:43:58.398Z,29.79
2019-04-26T10:46:29.478Z,30.10
2019-04-26T10:49:08.947Z,30.36
2019-04-26T10:51:38.573Z,30.39
2019-04-26T10:54:15.712Z,30.63
2019-04-26T10:56:56.356Z,29.92
2019-04-26T10:59:44.054Z,29.92
2019-04-26T11:02:17.883Z,29.53
2019-04-26T11:04:47.680Z,29.93
2019-04-26T11:07:17.085Z,30.41
2019-04-26T11:09:46.475Z,30.88
2019-04-26T11:12:17.592Z,30.28
2019-04-26T11:14:46.963Z,30.08
2019-04-26T11:17:17.835Z,30.31
2019-04-26T11:19:47.759Z,30.33
2019-04-26T11:22:28.618Z,30.80
2019-04-26T11:24:53.429Z,30.60
2019-04-26T11:27:21.055Z,31.48
2019-04-26T11:29:53.906Z,31.90
2019-04-26T11:32:21.511Z,31.81
2019-04-26T11:34:54.453Z,31.56
2019-04-26T11:37:22.111Z,32.30
2019-04-26T11:39:52.463Z,31.94
2019-04-26T11:42:22.309Z,32.35
2019-04-26T11:44:51.708Z,32.61
2019-04-26T11:47:21.676Z,32.34
2019-04-26T11:49:51.918Z,32.42
2019-04-26T11:52:21.309Z,32.06
2019-04-26T11:54:51.215Z,31.62
2019-04-26T11:57:22.526Z,31.90
2019-04-26T11:59:52.269Z,31.30
2019-04-26T12:02:21.681Z,31.29
2019-04-26T12:04:59.595Z,30.55
2019-04-26T12:07:39.172Z,29.52
2019-04-26T12:10:09.877Z,29.40
2019-04-26T12:12:43.151Z,30.00
2019-04-26T12:15:11.232Z,30.43
2019-04-26T12:17:41.018Z,30.08
2019-04-26T12:20:10.404Z,30.24
2019-04-26T12:22:43.261Z,30.24
2019-04-26T12:25:12.506Z,29.80
2019-04-26T12:27:42.473Z,29.66
2019-04-26T12:30:12.682Z,29.54
2019-04-26T12:32:42.071Z,29.69
2019-04-26T12:35:11.554Z,29.68
2019-04-26T12:37:41.002Z,29.78
2019-04-26T12:40:11.214Z,29.71
2019-04-26T12:42:43.369Z,29.27
2019-04-26T12:45:31.781Z,28.96
2019-04-26T12:48:02.297Z,29.24
2019-04-26T12:50:36.464Z,28.14
2019-04-26T12:53:02.774Z,29.57
2019-04-26T12:55:32.213Z,29.65
2019-04-26T12:58:01.622Z,29.25
2019-04-26T13:00:33.166Z,29.09
2019-04-26T13:03:04.045Z,28.84
2019-04-26T13:05:33.432Z,28.86
2019-04-26T13:08:02.802Z,28.71
2019-04-26T13:10:53.989Z,27.39
2019-04-26T13:13:27.484Z,28.46
2019-04-26T13:16:21.505Z,28.11
2019-04-26T13:18:50.657Z,27.93
2019-04-26T13:21:20.058Z,27.55
2019-04-26T13:23:49.443Z,27.42
2019-04-26T13:26:18.825Z,27.65
2019-04-26T13:28:48.225Z,27.92
2019-04-26T13:31:17.668Z,27.94
2019-04-26T13:33:47.029Z,27.72
2019-04-26T13:36:16.465Z,27.95
2019-04-26T13:38:46.816Z,27.89
2019-04-26T13:41:16.353Z,27.78
2019-04-26T13:43:45.804Z,27.94
2019-04-26T13:46:36.156Z,27.71
2019-04-26T13:49:36.797Z,27.51
2019-04-26T13:52:06.213Z,27.12
2019-04-26T13:54:35.632Z,26.88
2019-04-26T13:57:06.105Z,26.74
2019-04-26T13:59:36.204Z,26.87
2019-04-26T14:02:11.590Z,27.02
2019-04-26T14:04:37.237Z,26.77
2019-04-26T14:07:07.868Z,26.98
2019-04-26T14:09:37.222Z,27.09
2019-04-26T14:12:18.357Z,27.03
2019-04-26T14:14:39.444Z,27.10
2019-04-26T14:17:09.660Z,26.73
2019-04-26T14:19:39.006Z,26.50
2019-04-26T14:22:08.564Z,26.47
2019-04-26T14:24:46.649Z,26.55
2019-04-26T14:27:34.912Z,26.62
2019-04-26T14:30:06.620Z,26.61
2019-04-26T14:32:36.222Z,26.61
2019-04-26T14:35:05.995Z,26.53
2019-04-26T14:37:35.374Z,26.55
2019-04-26T14:40:16.717Z,26.40
2019-04-26T14:42:42.222Z,26.56
2019-04-26T14:45:07.517Z,26.53
2019-04-26T14:47:46.837Z,26.44
2019-04-26T14:50:14.110Z,26.59
2019-04-26T14:52:39.249Z,26.57
2019-04-26T14:55:08.607Z,26.44
2019-04-26T14:57:37.964Z,26.48
2019-04-26T15:00:09.942Z,26.63
2019-04-26T15:02:55.995Z,26.74
2019-04-26T15:05:46.307Z,26.67
2019-04-26T15:08:13.890Z,26.36
2019-04-26T15:10:48.106Z,26.40
2019-04-26T15:13:20.208Z,26.48
2019-04-26T15:15:46.222Z,26.59
2019-04-26T15:18:15.759Z,26.55
2019-04-26T15:20:45.101Z,26.62
2019-04-26T15:23:14.444Z,26.55
2019-04-26T15:25:48.303Z,26.50
2019-04-26T15:28:14.843Z,26.56
2019-04-26T15:30:46.852Z,26.49
2019-04-26T15:33:15.372Z,26.47
2019-04-26T15:35:45.377Z,26.34
2019-04-26T15:38:14.758Z,26.22
2019-04-26T15:41:05.545Z,26.03
2019-04-26T15:43:57.362Z,25.93
2019-04-26T15:46:48.670Z,25.90
2019-04-26T15:49:32.233Z,25.96
2019-04-26T15:52:00.894Z,25.94
2019-04-26T15:54:33.625Z,25.88
2019-04-26T15:57:03.053Z,25.80
2019-04-26T15:59:35.328Z,25.76
2019-04-26T16:02:04.809Z,25.76
2019-04-26T16:04:34.336Z,25.71
2019-04-26T16:07:03.754Z,25.61
2019-04-26T16:09:34.955Z,25.46
2019-04-26T16:12:04.353Z,25.32
2019-04-26T16:14:36.436Z,25.14
2019-04-26T16:17:06.548Z,25.09
2019-04-26T16:19:35.802Z,25.13
2019-04-26T16:22:05.772Z,25.09
2019-04-26T16:24:35.116Z,25.04
2019-04-26T16:27:04.574Z,25.01
2019-04-26T16:29:59.666Z,24.92
2019-04-26T16:33:03.315Z,24.84
2019-04-26T16:35:32.755Z,24.68
2019-04-26T16:38:22.472Z,24.58
2019-04-26T16:40:53.510Z,24.53
2019-04-26T16:43:36.999Z,24.40
2019-04-26T16:45:54.462Z,24.30
2019-04-26T16:48:25.724Z,24.22
2019-04-26T16:50:54.987Z,24.01
2019-04-26T16:53:43.708Z,24.01
2019-04-26T16:55:57.741Z,23.94
2019-04-26T16:58:30.929Z,23.85
2019-04-26T17:00:58.371Z,23.76
2019-04-26T17:03:27.782Z,23.46
2019-04-26T17:06:05.259Z,23.31
2019-04-26T17:08:28.218Z,23.18
2019-04-26T17:11:00.752Z,23.12
2019-04-26T17:13:29.897Z,23.12
2019-04-26T17:16:00.036Z,23.17
2019-04-26T17:18:29.348Z,23.06
2019-04-26T17:20:58.762Z,22.86
2019-04-26T17:23:47.052Z,22.72
2019-04-26T17:26:42.778Z,22.58
2019-04-26T17:29:12.569Z,22.47
2019-04-26T17:31:43.117Z,22.32
2019-04-26T17:34:14.954Z,22.15
2019-04-26T17:36:46.402Z,22.00
2019-04-26T17:39:17.311Z,21.88
2019-04-26T17:41:51.830Z,21.81
2019-04-26T17:44:20.377Z,21.75
2019-04-26T17:46:56.373Z,21.67
2019-04-26T17:49:22.638Z,21.58
2019-04-26T17:51:57.694Z,21.49
2019-04-26T17:54:41.471Z,21.45
2019-04-26T17:56:53.701Z,21.38
2019-04-26T17:59:33.405Z,21.28
2019-04-26T18:02:01.193Z,21.18
2019-04-26T18:04:36.065Z,21.06
2019-04-26T18:07:03.835Z,20.94
2019-04-26T18:09:45.941Z,20.86
2019-04-26T18:12:04.727Z,20.81
2019-04-26T18:14:34.144Z,20.75
2019-04-26T18:17:17.855Z,20.67
2019-04-26T18:19:54.407Z,20.59
2019-04-26T18:22:28.393Z,20.49
2019-04-26T18:24:58.922Z,20.46
2019-04-26T18:27:29.981Z,20.41
2019-04-26T18:30:06.585Z,20.35
2019-04-26T18:32:33.939Z,20.27
2019-04-26T18:35:01.768Z,20.22
2019-04-26T18:37:31.132Z,20.21
2019-04-26T18:40:02.040Z,20.18
2019-04-26T18:42:33.343Z,20.13
2019-04-26T18:45:03.626Z,20.06
2019-04-26T18:47:37.635Z,20.03
2019-04-26T18:50:07.347Z,19.98
2019-04-26T18:52:39.065Z,19.96
2019-04-26T18:55:16.278Z,19.95
2019-04-26T18:57:47.356Z,19.96
2019-04-26T19:00:26.572Z,19.94
2019-04-26T19:02:55.544Z,19.94
2019-04-26T19:05:29.820Z,19.98
2019-04-26T19:07:56.014Z,20.03
2019-04-26T19:10:28.939Z,20.06
2019-04-26T19:13:00.198Z,20.06
2019-04-26T19:15:54.119Z,20.09
2019-04-26T19:18:52.927Z,20.15
2019-04-26T19:21:38.687Z,20.17
2019-04-26T19:24:07.302Z,20.16
2019-04-26T19:26:35.043Z,20.16
2019-04-26T19:29:15.438Z,20.14
2019-04-26T19:31:35.848Z,20.15
2019-04-26T19:34:05.228Z,20.10
2019-04-26T19:36:34.619Z,20.12
2019-04-26T19:39:05.357Z,20.10
2019-04-26T19:41:34.690Z,20.02
2019-04-26T19:44:04.292Z,19.94
2019-04-26T19:46:42.616Z,19.86
2019-04-26T19:49:33.795Z,19.81
2019-04-26T19:52:13.278Z,19.75
2019-04-26T19:54:46.556Z,19.72
2019-04-26T19:57:23.790Z,19.64
2019-04-26T19:59:52.990Z,19.53
2019-04-26T20:02:22.361Z,19.44
2019-04-26T20:04:51.718Z,19.38
2019-04-26T20:07:24.151Z,19.34
2019-04-26T20:09:52.450Z,19.22
2019-04-26T20:12:25.007Z,19.12
2019-04-26T20:14:58.051Z,19.03
2019-04-26T20:17:24.009Z,18.94
2019-04-26T20:19:54.482Z,18.86
2019-04-26T20:22:28.266Z,18.79
2019-04-26T20:24:57.441Z,18.73
2019-04-26T20:27:27.999Z,18.66
2019-04-26T20:29:57.562Z,18.61
2019-04-26T20:32:36.493Z,18.53
2019-04-26T20:35:13.237Z,18.49
2019-04-26T20:37:45.150Z,18.41
2019-04-26T20:40:22.193Z,18.30
2019-04-26T20:42:47.364Z,18.24
2019-04-26T20:45:17.290Z,18.23
2019-04-26T20:47:51.341Z,18.21
2019-04-26T20:50:17.784Z,18.19
2019-04-26T20:52:47.141Z,18.15
2019-04-26T20:55:16.485Z,18.16
2019-04-26T20:57:45.839Z,18.09
2019-04-26T21:00:17.047Z,18.04
2019-04-26T21:02:46.454Z,18.00
2019-04-26T21:05:15.798Z,17.93
2019-04-26T21:07:49.131Z,17.89
2019-04-26T21:10:21.822Z,17.88
2019-04-26T21:12:51.607Z,17.83
2019-04-26T21:15:20.370Z,17.78
2019-04-26T21:17:49.724Z,17.78
2019-04-26T21:20:19.070Z,17.76
2019-04-26T21:22:48.437Z,17.72
2019-04-26T21:25:32.570Z,17.66
2019-04-26T21:28:15.939Z,17.64
2019-04-26T21:31:03.519Z,17.59
2019-04-26T21:33:58.947Z,17.55
2019-04-26T21:36:46.104Z,17.54
2019-04-26T21:39:47.319Z,17.54
2019-04-26T21:42:17.169Z,17.52
2019-04-26T21:44:51.561Z,17.51
2019-04-26T21:47:16.771Z,17.47
2019-04-26T21:49:46.144Z,17.44
2019-04-26T21:52:15.476Z,17.40
2019-04-26T21:54:48.324Z,17.38
2019-04-26T21:57:18.326Z,17.37
2019-04-26T21:59:49.046Z,17.35
2019-04-26T22:02:18.302Z,17.31
2019-04-26T22:04:47.768Z,17.28
2019-04-26T22:07:17.239Z,17.24
2019-04-26T22:10:20.680Z,17.19
2019-04-26T22:12:50.119Z,17.16
2019-04-26T22:15:37.496Z,17.14
2019-04-26T22:18:14.911Z,17.08
2019-04-26T22:20:52.790Z,17.04
2019-04-26T22:23:30.055Z,16.97
2019-04-26T22:26:00.143Z,16.96
2019-04-26T22:28:35.458Z,16.95
2019-04-26T22:31:06.881Z,16.91
2019-04-26T22:33:34.229Z,16.87
2019-04-26T22:36:04.083Z,16.84
2019-04-26T22:38:34.095Z,16.84
2019-04-26T22:41:03.705Z,16.80
2019-04-26T22:44:00.866Z,16.76
2019-04-26T22:46:48.647Z,16.71
2019-04-26T22:49:13.283Z,16.68
2019-04-26T22:51:43.545Z,16.63
2019-04-26T22:54:13.002Z,16.60
2019-04-26T22:56:45.694Z,16.53
2019-04-26T22:59:13.963Z,16.49
2019-04-26T23:01:44.736Z,16.46
2019-04-26T23:04:16.212Z,16.42
2019-04-26T23:06:46.848Z,16.36
2019-04-26T23:09:20.434Z,16.36
2019-04-26T23:11:55.639Z,16.38
2019-04-26T23:15:00.654Z,16.38
2019-04-26T23:17:48.927Z,16.36
2019-04-26T23:20:46.467Z,16.34
2019-04-26T23:23:20.694Z,16.32
2019-04-26T23:25:54.102Z,16.33
2019-04-26T23:28:23.517Z,16.34
2019-04-26T23:30:53.224Z,16.34
2019-04-26T23:33:23.956Z,16.30
2019-04-26T23:35:53.447Z,16.31
2019-04-26T23:38:23.451Z,16.31
2019-04-26T23:41:01.056Z,16.28
2019-04-26T23:43:25.599Z,16.26
2019-04-26T23:45:55.191Z,16.20
2019-04-26T23:48:24.577Z,16.17
2019-04-26T23:50:54.353Z,16.17
2019-04-26T23:53:29.545Z,16.19
2019-04-26T23:56:04.948Z,16.23
2019-04-26T23:58:34.388Z,16.34
